createdAt,value
2023-02-04T00:00:01.643Z,3.00
2023-02-04T00:02:28.527Z,2.92
2023-02-04T00:04:56.705Z,3.30
2023-02-04T00:07:23.494Z,3.38
2023-02-04T00:09:50.252Z,3.47
2023-02-04T00:12:17.172Z,2.60
2023-02-04T00:14:43.706Z,3.35
2023-02-04T00:17:13.199Z,3.78
2023-02-04T00:19:42.856Z,3.55
2023-02-04T00:22:10.123Z,3.17
2023-02-04T00:24:37.542Z,3.47
2023-02-04T00:27:05.139Z,4.68
2023-02-04T00:29:31.813Z,3.45
2023-02-04T00:31:58.717Z,3.40
2023-02-04T00:34:27.322Z,3.88
2023-02-04T00:36:53.889Z,3.60
2023-02-04T00:39:21.032Z,3.53
2023-02-04T00:41:48.066Z,3.80
2023-02-04T00:44:14.682Z,4.50
2023-02-04T00:46:42.454Z,4.57
2023-02-04T00:49:10.941Z,5.63
2023-02-04T00:51:38.779Z,5.22
2023-02-04T00:54:06.054Z,5.32
2023-02-04T00:56:33.252Z,5.85
2023-02-04T00:58:59.860Z,6.43
2023-02-04T01:01:26.490Z,6.57
2023-02-04T01:03:53.504Z,7.30
2023-02-04T01:06:20.133Z,8.18
2023-02-04T01:08:46.854Z,7.60
2023-02-04T01:11:13.591Z,8.07
2023-02-04T01:13:40.102Z,7.95
2023-02-04T01:16:06.742Z,8.48
2023-02-04T01:18:35.430Z,9.00
2023-02-04T01:21:28.706Z,8.80
2023-02-04T01:24:09.941Z,9.40
2023-02-04T01:26:56.920Z,9.82
2023-02-04T01:29:23.827Z,11.30
2023-02-04T01:31:50.957Z,10.63
2023-02-04T01:34:17.665Z,10.40
2023-02-04T01:36:44.346Z,10.25
2023-02-04T01:39:10.995Z,10.07
2023-02-04T01:41:37.532Z,10.85
2023-02-04T01:44:04.463Z,10.88
2023-02-04T01:46:31.111Z,10.55
2023-02-04T01:48:57.648Z,10.60
2023-02-04T01:51:28.055Z,11.60
2023-02-04T01:53:55.482Z,10.70
2023-02-04T01:56:28.227Z,10.90
2023-02-04T01:58:56.852Z,10.88
2023-02-04T02:01:39.035Z,10.35
2023-02-04T02:04:05.937Z,10.05
2023-02-04T02:06:33.126Z,10.32
2023-02-04T02:08:59.880Z,10.40
2023-02-04T02:11:26.755Z,10.15
2023-02-04T02:13:53.686Z,9.60
2023-02-04T02:16:20.286Z,8.65
2023-02-04T02:18:46.825Z,9.35
2023-02-04T02:21:14.923Z,8.10
2023-02-04T02:23:44.628Z,8.32
2023-02-04T02:26:11.267Z,8.57
2023-02-04T02:28:37.846Z,8.18
2023-02-04T02:31:04.654Z,7.93
2023-02-04T02:33:31.456Z,7.43
2023-02-04T02:35:58.110Z,7.40
2023-02-04T02:38:24.881Z,7.45
2023-02-04T02:40:52.825Z,7.28
2023-02-04T02:43:23.117Z,7.97
2023-02-04T02:45:50.438Z,8.00
2023-02-04T02:48:17.111Z,8.05
2023-02-04T02:50:44.276Z,8.57
2023-02-04T02:53:14.994Z,7.70
2023-02-04T02:55:42.637Z,7.40
2023-02-04T02:58:25.200Z,7.28
2023-02-04T03:00:52.221Z,7.13
2023-02-04T03:03:24.996Z,6.70
2023-02-04T03:05:53.310Z,5.90
2023-02-04T03:08:20.983Z,6.18
2023-02-04T03:10:47.658Z,6.55
2023-02-04T03:13:15.083Z,6.38
2023-02-04T03:15:42.896Z,5.70
2023-02-04T03:18:09.618Z,6.55
2023-02-04T03:20:37.261Z,6.30
2023-02-04T03:23:03.765Z,6.38
2023-02-04T03:25:59.461Z,6.70
2023-02-04T03:30:56.284Z,6.35
2023-02-04T03:33:29.090Z,6.45
2023-02-04T03:35:55.793Z,5.80
2023-02-04T03:38:23.218Z,6.88
2023-02-04T03:40:49.860Z,6.40
2023-02-04T03:43:16.409Z,6.05
2023-02-04T03:45:45.480Z,7.65
2023-02-04T03:48:12.588Z,6.50
2023-02-04T03:50:39.275Z,6.97
2023-02-04T03:53:05.889Z,6.40
2023-02-04T03:55:33.200Z,7.30
2023-02-04T03:58:00.041Z,7.43
2023-02-04T04:00:28.886Z,6.88
2023-02-04T04:02:55.837Z,7.35
2023-02-04T04:05:22.738Z,6.97
2023-02-04T04:07:49.357Z,7.80
2023-02-04T04:10:16.026Z,6.53
2023-02-04T04:12:48.232Z,8.10
2023-02-04T04:15:44.112Z,7.53
2023-02-04T04:18:13.640Z,7.43
2023-02-04T04:20:48.124Z,7.28
2023-02-04T04:23:16.993Z,7.43
2023-02-04T04:25:43.819Z,7.30
2023-02-04T04:28:10.577Z,7.18
2023-02-04T04:30:37.135Z,7.35
2023-02-04T04:33:03.928Z,7.68
2023-02-04T04:35:30.579Z,8.32
2023-02-04T04:37:57.126Z,7.28
2023-02-04T04:40:23.935Z,8.45
2023-02-04T04:42:50.995Z,7.03
2023-02-04T04:45:17.708Z,6.65
2023-02-04T04:47:44.338Z,7.15
2023-02-04T04:50:11.567Z,7.18
2023-02-04T04:52:38.153Z,7.45
2023-02-04T04:55:05.732Z,6.70
2023-02-04T04:57:32.449Z,7.00
2023-02-04T04:59:59.134Z,7.70
2023-02-04T05:02:25.928Z,7.05
2023-02-04T05:04:52.513Z,8.73
2023-02-04T05:07:19.335Z,7.72
2023-02-04T05:09:45.962Z,7.13
2023-02-04T05:12:12.805Z,8.02
2023-02-04T05:14:39.308Z,7.90
2023-02-04T05:17:05.990Z,8.57
2023-02-04T05:19:32.583Z,8.63
2023-02-04T05:22:01.730Z,8.68
2023-02-04T05:24:28.663Z,8.55
2023-02-04T05:26:55.417Z,9.38
2023-02-04T05:29:21.898Z,9.60
2023-02-04T05:31:48.509Z,9.52
2023-02-04T05:34:15.195Z,8.85
2023-02-04T05:36:41.860Z,8.70
2023-02-04T05:39:08.442Z,7.95
2023-02-04T05:41:35.057Z,8.00
2023-02-04T05:44:01.927Z,7.85
2023-02-04T05:46:28.538Z,8.88
2023-02-04T05:48:55.231Z,7.47
2023-02-04T05:51:21.931Z,7.50
2023-02-04T05:53:48.577Z,6.57
2023-02-04T05:56:15.217Z,7.25
2023-02-04T05:58:41.951Z,6.70
2023-02-04T06:01:08.522Z,7.35
2023-02-04T06:03:35.105Z,6.82
2023-02-04T06:06:01.804Z,6.78
2023-02-04T06:08:28.320Z,7.57
2023-02-04T06:10:55.014Z,6.82
2023-02-04T06:13:21.926Z,6.90
2023-02-04T06:15:48.683Z,7.38
2023-02-04T06:18:15.489Z,7.25
2023-02-04T06:20:42.083Z,6.90
2023-02-04T06:23:08.559Z,6.78
2023-02-04T06:25:35.234Z,7.13
2023-02-04T06:28:01.857Z,6.50
2023-02-04T06:30:28.599Z,5.55
2023-02-04T06:32:55.551Z,6.00
2023-02-04T06:35:22.182Z,6.65
2023-02-04T06:37:48.983Z,6.97
2023-02-04T06:40:15.762Z,6.60
2023-02-04T06:42:42.256Z,6.78
2023-02-04T06:45:09.024Z,6.57
2023-02-04T06:47:35.634Z,7.28
2023-02-04T06:50:02.281Z,6.93
2023-02-04T06:52:28.852Z,6.38
2023-02-04T06:54:55.622Z,6.28
2023-02-04T06:57:22.198Z,6.47
2023-02-04T06:59:56.389Z,6.57
2023-02-04T07:02:26.274Z,6.78
2023-02-04T07:04:54.757Z,6.65
2023-02-04T07:07:46.239Z,7.30
2023-02-04T07:10:13.472Z,6.03
2023-02-04T07:12:40.104Z,6.50
2023-02-04T07:15:06.856Z,6.68
2023-02-04T07:17:33.364Z,7.25
2023-02-04T07:19:59.883Z,6.75
2023-02-04T07:22:26.733Z,6.43
2023-02-04T07:24:53.331Z,6.30
2023-02-04T07:27:20.105Z,6.30
2023-02-04T07:29:46.800Z,5.82
2023-02-04T07:32:13.494Z,5.15
2023-02-04T07:34:40.171Z,5.70
2023-02-04T07:37:07.239Z,5.70
2023-02-04T07:39:33.921Z,5.07
2023-02-04T07:42:00.574Z,5.13
2023-02-04T07:44:33.903Z,5.43
2023-02-04T07:47:00.931Z,5.18
2023-02-04T07:52:16.079Z,5.05
2023-02-04T07:54:47.691Z,4.32
2023-02-04T07:57:24.035Z,4.03
2023-02-04T08:00:13.152Z,4.68
2023-02-04T08:02:40.268Z,4.47
2023-02-04T08:05:07.063Z,4.40
2023-02-04T08:07:33.841Z,4.60
2023-02-04T08:10:00.650Z,4.38
2023-02-04T08:12:27.811Z,4.90
2023-02-04T08:14:54.443Z,4.82
2023-02-04T08:17:21.876Z,5.53
2023-02-04T08:19:48.463Z,6.03
2023-02-04T08:22:15.289Z,5.43
2023-02-04T08:24:41.885Z,5.50
2023-02-04T08:27:08.537Z,4.85
2023-02-04T08:29:35.144Z,5.88
2023-02-04T08:32:13.648Z,5.70
2023-02-04T08:34:55.731Z,5.25
2023-02-04T08:40:33.133Z,5.30
2023-02-04T08:43:00.201Z,5.45
2023-02-04T08:45:26.970Z,5.60
2023-02-04T08:47:53.561Z,6.10
2023-02-04T08:50:20.072Z,5.32
2023-02-04T08:52:46.951Z,5.80
2023-02-04T08:55:13.700Z,6.78
2023-02-04T08:57:40.444Z,6.60
2023-02-04T09:00:08.126Z,5.25
2023-02-04T09:02:34.755Z,5.47
2023-02-04T09:05:01.429Z,6.15
2023-02-04T09:07:28.672Z,5.95
2023-02-04T09:09:55.416Z,5.88
2023-02-04T09:12:22.285Z,6.38
2023-02-04T09:14:48.964Z,6.95
2023-02-04T09:17:15.512Z,6.75
2023-02-04T09:19:42.278Z,6.63
2023-02-04T09:22:08.789Z,6.70
2023-02-04T09:24:37.844Z,7.15
2023-02-04T09:27:35.972Z,6.88
2023-02-04T09:32:43.685Z,7.95
2023-02-04T09:35:10.328Z,7.82
2023-02-04T09:37:36.937Z,8.20
2023-02-04T09:40:03.543Z,7.90
2023-02-04T09:42:30.290Z,7.43
2023-02-04T09:44:57.348Z,7.85
2023-02-04T09:47:25.537Z,7.65
2023-02-04T09:49:52.592Z,7.93
2023-02-04T09:52:19.788Z,8.52
2023-02-04T09:55:07.194Z,8.07
2023-02-04T09:57:34.287Z,7.55
2023-02-04T10:02:42.259Z,8.65
2023-02-04T10:05:37.475Z,7.78
2023-02-04T10:08:05.386Z,7.55
2023-02-04T10:10:32.220Z,8.80
2023-02-04T10:13:00.133Z,8.15
2023-02-04T10:15:26.924Z,6.80
2023-02-04T10:17:56.017Z,5.70
2023-02-04T10:20:23.516Z,5.50
2023-02-04T10:22:52.601Z,5.30
2023-02-04T10:25:20.668Z,6.63
2023-02-04T10:27:51.639Z,6.70
2023-02-04T10:30:20.670Z,7.35
2023-02-04T10:32:47.386Z,8.50
2023-02-04T10:35:15.259Z,9.10
2023-02-04T10:37:42.476Z,8.55
2023-02-04T10:40:29.872Z,8.40
2023-02-04T10:43:01.114Z,7.50
2023-02-04T10:45:30.795Z,7.85
2023-02-04T10:48:00.627Z,6.50
2023-02-04T10:50:36.079Z,7.72
2023-02-04T10:53:21.976Z,7.20
2023-02-04T10:55:49.251Z,7.25
2023-02-04T10:58:18.675Z,7.05
2023-02-04T11:00:45.178Z,7.15
2023-02-04T11:03:17.663Z,6.60
2023-02-04T11:05:44.455Z,5.97
2023-02-04T11:08:21.755Z,6.40
2023-02-04T11:10:50.552Z,7.05
2023-02-04T11:13:22.028Z,6.90
2023-02-04T11:15:51.080Z,6.75
2023-02-04T11:18:21.016Z,7.13
2023-02-04T11:20:48.804Z,7.10
2023-02-04T11:23:28.767Z,7.25
2023-02-04T11:26:07.709Z,7.65
2023-02-04T11:28:51.252Z,7.63
2023-02-04T11:31:20.883Z,6.53
2023-02-04T11:33:48.417Z,7.47
2023-02-04T11:36:15.657Z,7.45
2023-02-04T11:38:49.996Z,6.15
2023-02-04T11:41:29.293Z,6.22
2023-02-04T11:43:57.366Z,6.88
2023-02-04T11:46:31.499Z,5.80
2023-02-04T11:48:59.111Z,6.00
2023-02-04T11:51:53.720Z,5.78
2023-02-04T11:54:24.689Z,5.57
2023-02-04T11:56:52.773Z,5.88
2023-02-04T11:59:21.525Z,6.28
2023-02-04T12:01:48.103Z,5.97
2023-02-04T12:04:25.108Z,5.70
2023-02-04T12:07:02.471Z,6.47
2023-02-04T12:09:30.441Z,6.13
2023-02-04T12:11:58.068Z,6.43
2023-02-04T12:14:34.881Z,6.18
2023-02-04T12:17:01.823Z,5.90
2023-02-04T12:19:28.425Z,6.57
2023-02-04T12:21:56.014Z,5.20
2023-02-04T12:24:22.951Z,5.88
2023-02-04T12:26:49.924Z,5.80
2023-02-04T12:29:16.993Z,5.35
2023-02-04T12:31:43.919Z,4.80
2023-02-04T12:34:11.580Z,5.15
2023-02-04T12:36:38.488Z,5.25
2023-02-04T12:39:04.982Z,5.45
2023-02-04T12:41:31.630Z,5.28
2023-02-04T12:43:58.694Z,5.90
2023-02-04T12:46:25.532Z,5.93
2023-02-04T12:48:52.277Z,4.88
2023-02-04T12:51:21.056Z,4.80
2023-02-04T12:57:56.428Z,4.88
2023-02-04T13:00:24.224Z,4.95
2023-02-04T13:02:50.813Z,4.85
2023-02-04T13:05:17.827Z,4.85
2023-02-04T13:07:44.545Z,5.00
2023-02-04T13:10:11.819Z,4.90
2023-02-04T13:12:38.448Z,4.63
2023-02-04T13:15:05.411Z,5.72
2023-02-04T13:17:32.124Z,4.60
2023-02-04T13:19:59.109Z,4.53
2023-02-04T13:22:25.970Z,5.13
2023-02-04T13:24:52.762Z,4.65
2023-02-04T13:27:21.864Z,4.25
2023-02-04T13:29:48.603Z,4.38
2023-02-04T13:32:15.254Z,4.65
2023-02-04T13:34:41.928Z,4.88
2023-02-04T13:37:08.494Z,4.13
2023-02-04T13:39:35.170Z,4.22
2023-02-04T13:42:04.215Z,3.85
2023-02-04T13:44:32.546Z,3.67
2023-02-04T13:46:59.127Z,3.78
2023-02-04T13:49:26.349Z,3.97
2023-02-04T13:51:52.961Z,3.47
2023-02-04T13:54:19.841Z,3.60
2023-02-04T13:56:46.567Z,3.85
2023-02-04T13:59:13.186Z,3.05
2023-02-04T14:01:40.221Z,4.13
2023-02-04T14:04:07.067Z,3.08
2023-02-04T14:06:34.509Z,2.80
2023-02-04T14:09:01.490Z,3.00
2023-02-04T14:11:28.332Z,3.35
2023-02-04T14:13:54.930Z,2.97
2023-02-04T14:16:22.038Z,3.10
2023-02-04T14:18:48.878Z,3.20
2023-02-04T14:21:15.699Z,2.90
2023-02-04T14:23:42.327Z,3.10
2023-02-04T14:26:09.581Z,2.95
2023-02-04T14:28:36.209Z,2.50
2023-02-04T14:31:02.781Z,2.42
2023-02-04T14:33:29.817Z,2.50
2023-02-04T14:35:56.630Z,2.50
2023-02-04T14:38:23.366Z,2.95
2023-02-04T14:40:50.042Z,2.35
2023-02-04T14:43:16.668Z,2.35
2023-02-04T14:45:43.288Z,2.67
2023-02-04T14:48:41.252Z,2.35
2023-02-04T14:51:09.169Z,2.10
2023-02-04T14:54:05.352Z,2.88
2023-02-04T14:56:32.228Z,2.55
2023-02-04T14:58:58.763Z,2.70
2023-02-04T15:01:27.654Z,2.95
2023-02-04T15:03:54.311Z,2.75
2023-02-04T15:06:21.039Z,6.03
2023-02-04T15:08:47.695Z,3.20
2023-02-04T15:11:14.495Z,2.72
2023-02-04T15:13:41.255Z,3.10
2023-02-04T15:16:08.156Z,4.55
2023-02-04T15:18:34.992Z,6.07
2023-02-04T15:21:01.745Z,3.40
2023-02-04T15:23:28.560Z,2.67
2023-02-04T15:25:57.598Z,2.85
2023-02-04T15:28:24.597Z,2.70
2023-02-04T15:30:51.663Z,3.20
2023-02-04T15:33:18.578Z,4.50
2023-02-04T15:35:45.134Z,4.20
2023-02-04T15:38:12.018Z,2.95
2023-02-04T15:40:38.690Z,3.05
2023-02-04T15:43:05.295Z,3.22
2023-02-04T15:45:31.875Z,2.50
2023-02-04T15:47:58.544Z,3.78
2023-02-04T15:50:25.247Z,2.75
2023-02-04T15:52:54.746Z,2.20
2023-02-04T15:55:21.438Z,3.30
2023-02-04T15:57:48.028Z,2.40
2023-02-04T16:00:14.849Z,3.55
2023-02-04T16:02:41.645Z,2.67
2023-02-04T16:05:08.738Z,2.90
2023-02-04T16:07:35.732Z,2.63
2023-02-04T16:10:02.640Z,2.88
2023-02-04T16:12:29.763Z,2.92
2023-02-04T16:14:56.409Z,2.50
2023-02-04T16:17:23.039Z,2.65
2023-02-04T16:19:51.850Z,2.42
2023-02-04T16:22:20.987Z,2.38
2023-02-04T16:24:52.834Z,2.90
2023-02-04T16:27:19.979Z,3.13
2023-02-04T16:29:46.561Z,3.13
2023-02-04T16:32:13.345Z,2.90
2023-02-04T16:34:40.065Z,3.90
2023-02-04T16:37:13.028Z,3.60
2023-02-04T16:40:13.319Z,3.10
2023-02-04T16:42:40.969Z,3.17
2023-02-04T16:45:07.761Z,3.40
2023-02-04T16:47:34.697Z,3.30
2023-02-04T16:50:01.249Z,3.30
2023-02-04T16:52:31.849Z,3.78
2023-02-04T16:55:01.531Z,5.00
2023-02-04T16:57:28.454Z,4.63
2023-02-04T16:59:55.034Z,7.10
2023-02-04T17:02:21.979Z,5.10
2023-02-04T17:04:48.516Z,3.67
2023-02-04T17:07:15.267Z,3.63
2023-02-04T17:09:42.427Z,4.45
2023-02-04T17:12:09.137Z,4.50
2023-02-04T17:14:39.194Z,4.68
2023-02-04T17:17:09.194Z,4.90
2023-02-04T17:19:36.274Z,7.60
2023-02-04T17:22:02.970Z,9.90
2023-02-04T17:24:30.342Z,10.57
2023-02-04T17:26:57.069Z,7.72
2023-02-04T17:29:24.925Z,6.18
2023-02-04T17:31:53.174Z,8.07
2023-02-04T17:34:20.711Z,5.13
2023-02-04T17:36:48.205Z,5.53
2023-02-04T17:39:14.983Z,5.28
2023-02-04T17:41:42.400Z,5.65
2023-02-04T17:44:09.993Z,4.30
2023-02-04T17:46:36.766Z,5.00
2023-02-04T17:49:03.629Z,5.72
2023-02-04T17:51:30.411Z,8.23
2023-02-04T17:53:57.106Z,11.18
2023-02-04T17:56:24.928Z,8.00
2023-02-04T17:58:51.772Z,5.78
2023-02-04T18:01:21.688Z,5.68
2023-02-04T18:03:48.632Z,5.40
2023-02-04T18:06:24.023Z,4.60
2023-02-04T18:08:51.761Z,5.10
2023-02-04T18:11:22.965Z,5.70
2023-02-04T18:13:49.843Z,7.25
2023-02-04T18:16:19.163Z,7.45
2023-02-04T18:18:45.847Z,5.78
2023-02-04T18:21:21.718Z,6.55
2023-02-04T18:23:49.724Z,5.68
2023-02-04T18:26:17.801Z,6.60
2023-02-04T18:28:46.057Z,6.75
2023-02-04T18:31:25.333Z,6.07
2023-02-04T18:33:52.110Z,5.00
2023-02-04T18:36:20.132Z,6.15
2023-02-04T18:38:47.118Z,10.35
2023-02-04T18:41:21.102Z,10.13
2023-02-04T18:43:50.672Z,7.78
2023-02-04T18:46:23.783Z,5.28
2023-02-04T18:49:00.809Z,4.88
2023-02-04T18:51:29.233Z,5.43
2023-02-04T18:53:58.172Z,5.15
2023-02-04T18:56:24.956Z,4.25
2023-02-04T18:58:51.886Z,4.75
2023-02-04T19:01:23.214Z,4.50
2023-02-04T19:04:03.448Z,4.60
2023-02-04T19:06:32.777Z,5.05
2023-02-04T19:09:08.560Z,4.93
2023-02-04T19:11:37.013Z,4.60
2023-02-04T19:14:13.745Z,4.63
2023-02-04T19:16:41.213Z,5.05
2023-02-04T19:19:26.632Z,5.50
2023-02-04T19:21:53.433Z,5.57
2023-02-04T19:24:21.861Z,5.22
2023-02-04T19:26:55.912Z,5.18
2023-02-04T19:29:22.892Z,4.97
2023-02-04T19:31:50.640Z,5.65
2023-02-04T19:34:23.560Z,5.50
2023-02-04T19:36:50.484Z,5.43
2023-02-04T19:39:35.358Z,6.28
2023-02-04T19:42:02.082Z,6.45
2023-02-04T19:44:31.798Z,6.22
2023-02-04T19:47:18.595Z,6.13
2023-02-04T19:49:45.097Z,6.30
2023-02-04T19:52:31.881Z,6.13
2023-02-04T19:55:09.568Z,6.90
2023-02-04T19:57:37.146Z,6.75
2023-02-04T20:00:23.818Z,6.47
2023-02-04T20:02:53.245Z,7.10
2023-02-04T20:05:20.808Z,6.63
2023-02-04T20:07:47.287Z,6.75
2023-02-04T20:10:24.882Z,6.75
2023-02-04T20:12:55.111Z,6.90
2023-02-04T20:15:23.709Z,6.65
2023-02-04T20:17:51.004Z,6.22
2023-02-04T20:20:17.741Z,7.00
2023-02-04T20:22:54.706Z,6.97
2023-02-04T20:25:21.731Z,7.10
2023-02-04T20:27:52.271Z,7.00
2023-02-04T20:30:37.675Z,7.72
2023-02-04T20:35:33.958Z,6.57
2023-02-04T20:38:07.902Z,7.35
2023-02-04T20:40:37.741Z,6.28
2023-02-04T20:43:16.583Z,6.70
2023-02-04T20:46:03.183Z,6.90
2023-02-04T20:48:33.618Z,6.97
2023-02-04T20:51:04.679Z,6.65
2023-02-04T20:53:41.201Z,6.72
2023-02-04T20:56:28.042Z,7.07
2023-02-04T20:58:57.345Z,6.50
2023-02-04T21:01:30.012Z,7.93
2023-02-04T21:03:58.089Z,6.28
2023-02-04T21:06:29.616Z,6.38
2023-02-04T21:08:59.888Z,6.35
2023-02-04T21:11:30.360Z,6.43
2023-02-04T21:13:57.139Z,6.47
2023-02-04T21:16:23.807Z,6.57
2023-02-04T21:18:51.055Z,6.78
2023-02-04T21:21:18.012Z,6.45
2023-02-04T21:23:44.644Z,6.10
2023-02-04T21:26:11.281Z,6.43
2023-02-04T21:28:38.112Z,6.50
2023-02-04T21:31:04.962Z,5.78
2023-02-04T21:33:32.247Z,6.30
2023-02-04T21:35:58.832Z,6.72
2023-02-04T21:38:25.776Z,5.70
2023-02-04T21:40:52.628Z,5.30
2023-02-04T21:43:19.624Z,5.32
2023-02-04T21:45:46.241Z,4.93
2023-02-04T21:48:12.913Z,5.70
2023-02-04T21:50:39.618Z,5.72
2023-02-04T21:53:08.556Z,5.78
2023-02-04T21:55:36.000Z,5.90
2023-02-04T21:58:02.950Z,5.68
2023-02-04T22:00:29.630Z,5.20
2023-02-04T22:02:56.619Z,5.20
2023-02-04T22:05:23.437Z,4.80
2023-02-04T22:07:50.774Z,5.63
2023-02-04T22:10:19.453Z,4.97
2023-02-04T22:12:46.409Z,4.88
2023-02-04T22:15:13.048Z,4.05
2023-02-04T22:17:39.872Z,4.38
2023-02-04T22:20:06.822Z,3.55
2023-02-04T22:22:33.447Z,4.30
2023-02-04T22:25:00.192Z,4.20
2023-02-04T22:27:26.951Z,4.78
2023-02-04T22:29:53.517Z,3.65
2023-02-04T22:32:21.288Z,3.28
2023-02-04T22:34:47.767Z,3.60
2023-02-04T22:37:14.425Z,3.20
2023-02-04T22:39:41.145Z,3.70
2023-02-04T22:42:08.920Z,3.08
2023-02-04T22:44:35.623Z,3.25
2023-02-04T22:47:02.478Z,3.55
2023-02-04T22:49:29.401Z,3.38
2023-02-04T22:51:56.117Z,3.22
2023-02-04T22:54:22.801Z,2.75
2023-02-04T22:56:51.936Z,3.45
2023-02-04T22:59:20.277Z,3.38
2023-02-04T23:01:46.929Z,3.00
2023-02-04T23:04:13.501Z,2.83
2023-02-04T23:06:40.153Z,2.80
2023-02-04T23:09:06.654Z,3.05
2023-02-04T23:11:33.524Z,3.35
2023-02-04T23:14:00.099Z,2.70
2023-02-04T23:16:26.826Z,2.58
2023-02-04T23:18:53.421Z,2.40
2023-02-04T23:21:20.976Z,2.10
2023-02-04T23:23:47.913Z,1.95
2023-02-04T23:26:14.546Z,2.13
2023-02-04T23:28:41.066Z,2.60
2023-02-04T23:31:07.965Z,2.03
2023-02-04T23:33:35.090Z,2.10
2023-02-04T23:36:01.826Z,2.83
2023-02-04T23:38:31.157Z,2.80
2023-02-04T23:41:00.300Z,1.90
2023-02-04T23:43:27.620Z,2.78
2023-02-04T23:45:56.811Z,2.40
2023-02-04T23:48:24.552Z,2.17
2023-02-04T23:50:51.512Z,1.80
2023-02-04T23:53:19.848Z,1.55
2023-02-04T23:55:50.603Z,1.38
2023-02-04T23:58:17.797Z,1.40
